This is the latest recevied weather packets stored in our database for station/object WK7G. If no packets are shown the sender has not sent any weather packets the latest 10 day(s).
| Time | Temp. | Humidity | Pressure | Rain* | Wind** | Luminosity | Snow |
|---|---|---|---|---|---|---|---|
| 1777708900 | 1.11° C | 66% | 1015.3 hPa | 0 mm | - | 0 W/m² | - |
| 1777708598 | 0.56° C | 67% | 1015.2 hPa | 0 mm | - | 0 W/m² | - |
| 1777708295 | 1.67° C | 66% | 1014.9 hPa | 0 mm | - | 0 W/m² | - |
| 1777707993 | 1.11° C | 64% | 1015.1 hPa | 0 mm | - | 0 W/m² | - |
| 1777707689 | 1.11° C | 65% | 1015.2 hPa | 0 mm | - | 0 W/m² | - |
| 1777707386 | 1.11° C | 66% | 1015.3 hPa | 0 mm | - | 0 W/m² | - |
| 1777707082 | 0° C | 69% | 1015.2 hPa | 0 mm | - | 0 W/m² | - |
| 1777706780 | 0° C | 72% | 1015.4 hPa | 0 mm | - | 0 W/m² | - |
| 1777706478 | 1.11° C | 69% | 1015.2 hPa | 0 mm | - | 0 W/m² | - |
| 1777706175 | 0.56° C | 69% | 1015.4 hPa | 0 mm | - | 0 W/m² | - |
| 1777705873 | 1.67° C | 67% | 1015.5 hPa | 0 mm | - | 0 W/m² | - |
| 1777705571 | 1.67° C | 64% | 1015.2 hPa | 0 mm | - | 0 W/m² | - |
| 1777705269 | 1.67° C | 66% | 1015.1 hPa | 0 mm | - | 0 W/m² | - |
| 1777704967 | 0.56° C | 68% | 1015.3 hPa | 0 mm | - | 0 W/m² | - |
| 1777704664 | 1.11° C | 68% | 1015.2 hPa | 0 mm | - | 0 W/m² | - |
| 1777704363 | 1.67° C | 65% | 1015.3 hPa | 0 mm | - | 0 W/m² | - |
| 1777704060 | 1.67° C | 68% | 1015.3 hPa | 0 mm | - | 0 W/m² | - |
| 1777703757 | 1.67° C | 65% | 1015.2 hPa | 0 mm | - | 0 W/m² | - |
| 1777703455 | 1.67° C | 66% | 1015.4 hPa | 0 mm | - | 0 W/m² | - |
| 1777703152 | 2.78° C | 62% | 1014.9 hPa | 0 mm | - | 0 W/m² | - |
| 1777702850 | 2.78° C | 60% | 1015.1 hPa | 0 mm | - | 0 W/m² | - |
| 1777702547 | 3.33° C | 60% | 1015.2 hPa | 0 mm | - | 0 W/m² | - |
| 1777702244 | 4.44° C | 56% | 1015.3 hPa | 0 mm | - | 0 W/m² | - |
| 1777701939 | 3.89° C | 56% | 1015.2 hPa | 0 mm | - | 0 W/m² | - |
| 1777701637 | 3.33° C | 57% | 1015.1 hPa | 0 mm | - | 0 W/m² | - |
* Rain latest hour (hover to see other rain measurements)
** Current wind speed in m/s (hover to see current wind gust speed)